首页
METAR-TAF:

METAR-TAF

机场 :

費爾班克斯, 阿拉斯加州, 美国

费尔班克斯国际机场

纬度: 64-48-14N, 经度: 147-52-34W, 海拔: 132米

当前天气观测

该预报发布于48分钟前的22:53 UTC
风速3节,风向
温度 -6°C
湿度 93%
气压 1001 hPa
能見度: 1.6公里
散云层高于1200英尺
阴天层高于2300英尺
小雪, 轻雾

METAR: PAFA 182253Z 19003KT 1SM -SN BR SCT012 OVC023 M06/M07 A2957 RMK AO2 SLP023 T10611072 RVRNO

时间: 14:41 (23:41 UTC)

预报

该预报发布于21分钟前的23:20 UTC
预报有效从19日的 00点(UTC)到 20日的 06点(UTC)
风速节,风向
能見度: 1.6公里
散云层高于800英尺
多云层高于1200英尺
小雪, 轻雾
从 19日的 1600点(UTC)
风速3节,风向西转西南
能見度: 4.8公里
散云层高于800英尺
阴天层高于1500英尺
小雪, 轻雾

TAF: PAFA 182320Z 1900/2006 00000KT 1SM -SN BR SCT008 BKN012 FM191600 25003KT 3SM -SN BR SCT008 OVC015

超过4000个机场的气象观测和天气预报(METAR&TAF报告)。

可查询的气象台以黄色和红色小点在地图上表示。

将鼠标移到小点上方,可查看气象台名称。

然后点击查看天气观测和预报。

如需切换地图:点击带黑十字的绿色按钮放大地图;点击带横线的绿色按钮缩小地图;或者点击绿色箭头查看邻近地区的地图。


METAR-TAF: